Time;durP1;ratioP1;P1;durP2;ratioP2;P2;SDS_P1;SDS_P2;PMS_P1;PMS_P2;Temp;Humidity;BMP_temperature;BMP_pressure;BME280_temperature;BME280_humidity;BME280_pressure;Samples;Min_cycle;Max_cycle;Signal;HPM_P1;HPM_P2
2023/04/16 00:01:16;;;;;;;3.67;1.30;;;;;;;16.91;42.34;101889.63;5015775;28;20038;-66
2023/04/16 00:03:41;;;;;;;5.68;1.20;;;;;;;16.88;42.14;101879.94;4982849;28;20045;-66
2023/04/16 00:06:07;;;;;;;6.30;1.25;;;;;;;16.88;43.19;101879.94;4982460;28;20026;-67
2023/04/16 00:08:34;;;;;;;2.83;1.30;;;;;;;16.88;42.02;101882.66;4982491;28;20053;-66
2023/04/16 00:10:59;;;;;;;6.75;1.38;;;;;;;16.87;43.19;101889.06;5031265;28;20116;-68
2023/04/16 00:13:26;;;;;;;4.95;2.08;;;;;;;16.84;43.43;101884.78;5016046;28;20120;-68
2023/04/16 00:15:51;;;;;;;5.13;1.60;;;;;;;16.83;42.22;101882.25;5014874;28;20083;-68
2023/04/16 00:18:17;;;;;;;7.60;1.38;;;;;;;16.78;42.72;101888.06;4998666;28;20124;-68
2023/04/16 00:20:42;;;;;;;2.80;1.33;;;;;;;16.76;44.00;101887.34;4998522;28;20391;-68
2023/04/16 00:23:08;;;;;;;4.35;1.63;;;;;;;16.75;43.20;101874.81;5007835;28;20489;-68
2023/04/16 00:25:33;;;;;;;4.78;1.70;;;;;;;16.70;43.46;101870.81;5023223;28;20054;-67
2023/04/16 00:27:59;;;;;;;5.97;1.27;;;;;;;16.75;42.41;101877.53;5000788;28;20046;-68
2023/04/16 00:30:24;;;;;;;5.38;1.95;;;;;;;16.74;43.00;101878.53;5019804;28;20513;-68
2023/04/16 00:32:49;;;;;;;2.22;1.40;;;;;;;16.73;43.81;101876.81;4981881;28;20087;-67
2023/04/16 00:35:15;;;;;;;3.22;1.67;;;;;;;16.72;42.82;101874.28;4997484;28;20026;-68
2023/04/16 00:37:40;;;;;;;6.22;1.52;;;;;;;16.73;43.25;101882.22;5006315;28;20093;-68
2023/04/16 00:40:06;;;;;;;3.58;1.52;;;;;;;16.73;42.62;101882.22;5021206;28;20518;-68
2023/04/16 00:42:32;;;;;;;3.53;1.90;;;;;;;16.71;44.11;101878.81;4997626;28;20145;-68
2023/04/16 00:44:57;;;;;;;7.03;1.70;;;;;;;16.69;43.10;101870.00;5013766;28;20533;-68
2023/04/16 00:47:23;;;;;;;2.72;1.80;;;;;;;16.72;42.68;101883.22;5014015;28;20022;-68
2023/04/16 00:49:48;;;;;;;4.30;1.70;;;;;;;16.72;43.55;101879.69;4997292;28;20038;-68
2023/04/16 00:52:14;;;;;;;4.68;2.05;;;;;;;16.69;42.97;101880.81;5013509;28;20109;-68
2023/04/16 00:54:39;;;;;;;5.65;1.88;;;;;;;16.70;42.53;101881.66;5013530;28;20057;-68
2023/04/16 00:57:05;;;;;;;7.22;1.88;;;;;;;16.68;42.55;101881.81;5013413;28;20025;-68
2023/04/16 00:59:31;;;;;;;6.38;1.55;;;;;;;16.69;43.00;101879.97;5014795;28;20057;-68
2023/04/16 01:01:56;;;;;;;4.82;1.95;;;;;;;16.61;44.17;101877.13;4997438;28;20056;-68
2023/04/16 01:04:22;;;;;;;3.78;1.85;;;;;;;16.60;43.83;101881.66;4996987;28;20042;-68
2023/04/16 01:06:48;;;;;;;5.47;1.50;;;;;;;16.58;43.98;101882.81;5029463;28;20046;-68
2023/04/16 01:09:13;;;;;;;4.72;1.83;;;;;;;16.52;44.09;101884.19;4997069;28;20088;-68
2023/04/16 01:11:38;;;;;;;2.90;1.77;;;;;;;16.53;44.06;101885.91;4981160;28;20041;-68
2023/04/16 01:14:04;;;;;;;6.65;1.70;;;;;;;16.53;42.91;101887.72;5014356;28;20026;-68
2023/04/16 01:16:29;;;;;;;6.38;2.65;;;;;;;16.53;43.10;101891.34;5014437;28;20040;-68
2023/04/16 01:18:55;;;;;;;6.70;2.08;;;;;;;16.51;43.52;101877.06;5013191;28;20033;-68
2023/04/16 01:21:20;;;;;;;9.77;2.42;;;;;;;16.53;43.42;101885.91;4996741;28;20393;-68
2023/04/16 01:23:46;;;;;;;6.35;2.47;;;;;;;16.53;43.29;101880.50;5013398;28;20508;-68
2023/04/16 01:26:11;;;;;;;4.50;2.28;;;;;;;16.49;43.83;101884.47;5012897;28;20103;-68
2023/04/16 01:28:36;;;;;;;4.05;2.00;;;;;;;16.51;43.53;101887.03;5012640;28;20041;-68
2023/04/16 01:31:02;;;;;;;3.97;2.13;;;;;;;16.52;44.07;101889.59;4996299;28;20505;-68
2023/04/16 01:33:28;;;;;;;4.93;2.45;;;;;;;16.50;43.71;101891.59;5012747;28;20040;-68
2023/04/16 01:35:53;;;;;;;4.07;2.35;;;;;;;16.51;43.04;101893.31;4996448;28;20033;-68
2023/04/16 01:38:18;;;;;;;8.48;2.92;;;;;;;16.50;44.19;101886.16;5014193;28;20025;-68
2023/04/16 01:40:44;;;;;;;4.93;2.25;;;;;;;16.52;44.51;101884.19;5012974;28;20516;-68
2023/04/16 01:43:09;;;;;;;6.40;2.42;;;;;;;16.47;44.22;101880.22;4997742;28;20030;-68
2023/04/16 01:45:35;;;;;;;9.63;2.63;;;;;;;16.49;44.81;101894.44;5018595;28;20042;-69
2023/04/16 01:48:00;;;;;;;5.75;2.20;;;;;;;16.48;44.85;101893.59;5002403;28;20053;-69
2023/04/16 01:50:26;;;;;;;9.52;2.47;;;;;;;16.48;44.84;101893.59;5003911;28;20545;-69
2023/04/16 01:52:51;;;;;;;7.35;2.40;;;;;;;16.50;44.74;101882.63;5001122;28;20033;-68
2023/04/16 01:55:17;;;;;;;6.03;2.60;;;;;;;16.47;43.92;101882.91;5012500;28;20512;-68
2023/04/16 01:57:42;;;;;;;8.88;3.05;;;;;;;16.48;43.51;101888.16;4996010;28;20058;-68
2023/04/16 02:00:08;;;;;;;4.22;2.33;;;;;;;16.46;44.60;101887.47;5012288;28;20460;-68
2023/04/16 02:02:34;;;;;;;9.85;2.33;;;;;;;16.43;44.73;101882.34;5029066;28;20379;-67
2023/04/16 02:05:00;;;;;;;7.22;2.70;;;;;;;16.44;44.49;101892.16;5014153;28;20034;-68
2023/04/16 02:07:26;;;;;;;4.78;2.55;;;;;;;16.44;43.67;101892.16;4996036;28;20044;-68
2023/04/16 02:09:52;;;;;;;5.53;2.92;;;;;;;16.45;43.27;101888.44;4979791;28;20041;-69
2023/04/16 02:12:17;;;;;;;12.90;3.85;;;;;;;16.44;43.98;101886.75;4995762;28;20115;-68
2023/04/16 02:14:43;;;;;;;6.78;2.80;;;;;;;16.47;43.38;101891.84;5012679;28;20033;-68
2023/04/16 02:17:08;;;;;;;4.50;2.83;;;;;;;16.43;43.40;101887.75;5012096;28;20034;-68
2023/04/16 02:19:34;;;;;;;8.43;2.67;;;;;;;16.41;44.89;101878.06;5012046;28;20445;-68
2023/04/16 02:22:02;;;;;;;8.35;2.38;;;;;;;16.42;44.47;101880.63;4995844;28;20030;-69
2023/04/16 02:24:28;;;;;;;6.47;2.75;;;;;;;16.44;43.92;101875.94;5028355;28;20038;-67
2023/04/16 02:26:55;;;;;;;6.25;2.75;;;;;;;16.44;44.63;101870.53;5012010;28;20022;-68
2023/04/16 02:29:21;;;;;;;4.38;2.88;;;;;;;16.42;45.34;101875.22;5012425;28;20052;-68
2023/04/16 02:31:47;;;;;;;6.30;2.67;;;;;;;16.43;44.12;101884.19;5028429;28;20538;-68
2023/04/16 02:34:13;;;;;;;7.30;2.13;;;;;;;16.41;44.42;101881.63;4995686;28;20113;-68
2023/04/16 02:36:38;;;;;;;8.07;2.38;;;;;;;16.42;45.42;101874.34;5011900;28;20114;-68
2023/04/16 02:39:04;;;;;;;6.03;2.72;;;;;;;16.40;44.34;101874.50;5013023;28;20485;-68
2023/04/16 02:41:29;;;;;;;9.30;2.67;;;;;;;16.43;44.06;101874.22;4995873;28;20497;-68
2023/04/16 02:43:55;;;;;;;7.68;2.50;;;;;;;16.46;44.32;101875.78;4995466;28;20037;-68
2023/04/16 02:46:20;;;;;;;6.32;2.88;;;;;;;16.44;44.20;101873.25;5027605;28;20042;-68
2023/04/16 02:48:46;;;;;;;8.23;2.88;;;;;;;16.44;45.00;101875.09;4995334;28;20038;-68
2023/04/16 02:51:11;;;;;;;6.93;2.97;;;;;;;16.43;43.90;101873.38;5015269;28;20501;-68
2023/04/16 02:53:36;;;;;;;7.68;2.85;;;;;;;16.42;44.42;101883.31;5017391;28;20034;-68
2023/04/16 02:56:02;;;;;;;6.10;2.83;;;;;;;16.41;45.51;101880.78;4983281;28;20497;-68
2023/04/16 02:58:27;;;;;;;9.07;3.13;;;;;;;16.36;45.06;101889.28;5016757;28;20050;-68
2023/04/16 03:00:53;;;;;;;7.18;2.53;;;;;;;16.38;44.61;101887.31;4999091;28;20026;-68
2023/04/16 03:03:20;;;;;;;7.20;3.00;;;;;;;16.41;44.34;101892.44;5015723;28;20559;-68
2023/04/16 03:05:45;;;;;;;7.32;2.72;;;;;;;16.42;44.49;101888.72;5015764;28;20021;-68
2023/04/16 03:08:11;;;;;;;9.70;3.28;;;;;;;16.41;44.47;101892.44;4999116;28;20088;-68
2023/04/16 03:10:36;;;;;;;7.65;3.08;;;;;;;16.44;45.67;101900.28;5015619;28;20033;-68
2023/04/16 03:13:02;;;;;;;5.90;2.45;;;;;;;16.44;44.68;101894.88;5031995;28;20042;-68
2023/04/16 03:15:28;;;;;;;7.63;3.38;;;;;;;16.45;45.67;101901.97;5015466;28;20516;-68
2023/04/16 03:17:54;;;;;;;7.60;3.47;;;;;;;16.47;44.52;101907.25;5015388;28;20519;-68
2023/04/16 03:20:20;;;;;;;6.85;2.70;;;;;;;16.44;44.82;101902.13;4999424;28;20028;-68
2023/04/16 03:22:46;;;;;;;7.70;3.10;;;;;;;16.47;45.26;101904.56;5031692;28;20026;-68
2023/04/16 03:25:11;;;;;;;10.13;3.28;;;;;;;16.47;45.38;101902.69;4998847;28;20409;-68
2023/04/16 03:27:38;;;;;;;8.13;3.28;;;;;;;16.49;45.77;101905.25;5015226;28;20088;-68
2023/04/16 03:30:07;;;;;;;6.68;2.92;;;;;;;16.45;45.19;101910.09;4999000;28;20049;-68
2023/04/16 03:32:32;;;;;;;8.35;3.08;;;;;;;16.44;44.35;101905.69;5015376;28;20029;-68
2023/04/16 03:34:57;;;;;;;7.22;2.97;;;;;;;16.43;44.66;101905.81;5016251;28;20038;-68
2023/04/16 03:37:23;;;;;;;12.93;3.05;;;;;;;16.42;46.22;101894.13;4997507;28;20471;-68
2023/04/16 03:39:48;;;;;;;6.68;3.10;;;;;;;16.40;46.07;101909.66;4982237;28;20037;-68
2023/04/16 03:42:14;;;;;;;6.50;2.85;;;;;;;16.41;44.70;101905.97;4999171;28;20117;-68
2023/04/16 03:44:39;;;;;;;10.55;3.45;;;;;;;16.42;45.25;101904.97;5015196;28;20038;-68
2023/04/16 03:47:05;;;;;;;10.05;3.50;;;;;;;16.39;45.77;101905.25;4998341;28;20041;-68
2023/04/16 03:49:30;;;;;;;6.10;3.13;;;;;;;16.34;44.58;101902.09;4998471;28;20497;-68
2023/04/16 03:51:55;;;;;;;8.73;3.20;;;;;;;16.30;46.26;101900.69;4998450;28;20030;-68
2023/04/16 03:54:21;;;;;;;6.45;3.40;;;;;;;16.31;45.26;101896.97;5015890;28;20054;-68
2023/04/16 03:56:46;;;;;;;8.27;3.33;;;;;;;16.29;44.79;101901.66;5016283;28;20490;-68
2023/04/16 03:59:11;;;;;;;11.80;3.58;;;;;;;16.27;45.57;101898.25;4997969;28;20054;-69
2023/04/16 04:01:37;;;;;;;9.23;3.35;;;;;;;16.28;44.74;101903.53;5014172;28;20041;-68
2023/04/16 04:04:02;;;;;;;8.90;3.80;;;;;;;16.31;44.94;101902.38;5030886;28;20124;-68
2023/04/16 04:06:28;;;;;;;8.13;3.30;;;;;;;16.32;46.13;101898.69;4997981;28;20120;-68
2023/04/16 04:08:53;;;;;;;8.40;3.38;;;;;;;16.31;46.64;101903.25;4997927;28;20037;-68
2023/04/16 04:11:18;;;;;;;7.30;3.65;;;;;;;16.30;45.23;101898.81;4998304;28;20370;-68
2023/04/16 04:13:44;;;;;;;11.18;3.33;;;;;;;16.30;46.72;101903.41;5015548;28;20034;-68
2023/04/16 04:16:10;;;;;;;7.93;3.60;;;;;;;16.29;46.78;101899.84;5014371;28;20041;-68
2023/04/16 04:18:35;;;;;;;9.85;3.50;;;;;;;16.31;45.16;101903.25;4997843;28;20418;-68
2023/04/16 04:21:07;;;;;;;11.88;4.30;;;;;;;16.30;46.56;101903.41;5014152;28;20414;-68
2023/04/16 04:23:33;;;;;;;10.65;4.07;;;;;;;16.31;45.78;101903.25;5014581;28;20026;-68
2023/04/16 04:26:02;;;;;;;9.25;4.32;;;;;;;16.32;45.39;101904.09;5030581;28;20449;-68
2023/04/16 04:28:28;;;;;;;11.48;3.88;;;;;;;16.33;46.08;101902.25;4997973;28;20029;-68
2023/04/16 04:30:54;;;;;;;9.75;5.13;;;;;;;16.30;46.04;101896.13;5013839;28;20037;-68
2023/04/16 04:33:19;;;;;;;10.38;4.15;;;;;;;16.33;45.98;101903.13;4997687;28;20084;-68
2023/04/16 04:35:44;;;;;;;14.20;4.45;;;;;;;16.36;45.47;101905.50;4997891;28;20410;-68
2023/04/16 04:38:10;;;;;;;8.85;3.75;;;;;;;16.39;45.08;101905.25;5013757;28;20034;-68
2023/04/16 04:40:35;;;;;;;10.02;4.22;;;;;;;16.40;45.35;101912.38;4997327;28;20038;-68
2023/04/16 04:43:01;;;;;;;9.18;4.53;;;;;;;16.43;46.40;101911.22;5030137;28;20046;-68
2023/04/16 04:45:26;;;;;;;12.60;5.70;;;;;;;16.44;45.51;101913.81;4997252;28;20092;-68
2023/04/16 04:47:52;;;;;;;11.75;4.63;;;;;;;16.40;46.55;101912.38;4981446;28;20133;-69
2023/04/16 04:50:17;;;;;;;13.02;4.50;;;;;;;16.44;46.37;101924.63;4997277;28;20410;-68
2023/04/16 04:52:43;;;;;;;9.95;4.85;;;;;;;16.43;46.77;101922.91;5013544;28;20038;-69
2023/04/16 04:55:08;;;;;;;13.52;5.20;;;;;;;16.45;46.51;101929.03;5013813;28;20034;-68
2023/04/16 04:57:33;;;;;;;16.50;4.53;;;;;;;16.43;46.29;101922.03;4996965;28;20114;-68
2023/04/16 05:00:01;;;;;;;13.20;5.00;;;;;;;16.43;46.95;101928.31;5013291;28;20041;-68
2023/04/16 05:02:27;;;;;;;12.38;3.92;;;;;;;16.41;47.02;101930.31;4997892;28;20033;-68
2023/04/16 05:04:52;;;;;;;13.73;4.82;;;;;;;16.43;46.13;101925.63;4997314;28;20386;-69
2023/04/16 05:07:18;;;;;;;10.73;4.63;;;;;;;16.44;45.65;101924.63;4997475;28;20037;-68
2023/04/16 05:09:43;;;;;;;10.63;4.22;;;;;;;16.46;46.59;101930.75;4997209;28;20041;-68
2023/04/16 05:12:09;;;;;;;9.23;4.40;;;;;;;16.44;46.43;101931.88;5012785;28;20038;-68
2023/04/16 05:14:35;;;;;;;9.70;4.80;;;;;;;16.43;46.02;101933.72;4981394;28;20053;-68
2023/04/16 05:17:00;;;;;;;9.85;5.07;;;;;;;16.42;46.95;101929.28;5029666;28;20041;-68
2023/04/16 05:19:26;;;;;;;8.65;4.05;;;;;;;16.40;46.57;101928.59;4997342;28;20525;-68
2023/04/16 05:21:51;;;;;;;6.15;4.25;;;;;;;16.46;45.77;101932.59;5029483;28;20505;-68
2023/04/16 05:24:16;;;;;;;13.00;4.60;;;;;;;16.49;46.23;101944.00;4996554;28;20026;-68
2023/04/16 05:26:42;;;;;;;10.85;4.80;;;;;;;16.51;46.07;101939.28;4997121;28;20030;-68
2023/04/16 05:29:07;;;;;;;14.57;5.45;;;;;;;16.51;47.23;101936.56;4996505;28;20471;-68
2023/04/16 05:31:32;;;;;;;10.55;4.90;;;;;;;16.49;45.94;101933.16;4980225;28;20106;-68
2023/04/16 05:33:58;;;;;;;9.73;4.28;;;;;;;16.53;47.29;101945.44;5029152;28;20084;-68
2023/04/16 05:36:23;;;;;;;14.30;5.65;;;;;;;16.54;45.89;101941.75;4996365;28;20100;-68
2023/04/16 05:38:49;;;;;;;7.75;4.60;;;;;;;16.55;46.37;101951.59;4996799;28;20036;-68
2023/04/16 05:41:15;;;;;;;14.77;4.85;;;;;;;16.57;46.98;101946.00;5012616;28;20386;-68
2023/04/16 05:43:40;;;;;;;12.27;4.72;;;;;;;16.59;47.16;101949.44;4996322;28;20501;-68
2023/04/16 05:46:05;;;;;;;13.63;5.28;;;;;;;16.58;47.30;101956.69;5012546;28;20568;-68
2023/04/16 05:48:31;;;;;;;12.10;5.82;;;;;;;16.59;45.77;101958.41;5012762;28;20038;-68
2023/04/16 05:50:56;;;;;;;14.60;5.38;;;;;;;16.59;45.86;101955.69;5013699;28;20034;-68
2023/04/16 05:53:22;;;;;;;10.40;5.03;;;;;;;16.59;46.92;101961.09;4996442;28;20038;-68
2023/04/16 05:55:48;;;;;;;10.98;6.22;;;;;;;16.60;47.11;101960.13;5028961;28;20041;-68
2023/04/16 05:58:13;;;;;;;9.93;4.95;;;;;;;16.59;46.88;101963.81;5013478;28;20050;-68
2023/04/16 06:00:39;;;;;;;8.77;5.18;;;;;;;16.61;47.17;101969.09;4995971;28;20505;-68
2023/04/16 06:03:04;;;;;;;8.60;5.00;;;;;;;16.58;47.10;101967.50;4996336;28;20427;-68
2023/04/16 06:05:30;;;;;;;8.68;5.25;;;;;;;16.60;46.94;101967.38;5013925;28;20088;-68
2023/04/16 06:07:55;;;;;;;15.32;6.32;;;;;;;16.61;46.64;101969.94;5012151;28;20030;-68
2023/04/16 06:10:21;;;;;;;10.25;5.97;;;;;;;16.63;45.97;101967.97;5012411;28;20061;-68
2023/04/16 06:12:47;;;;;;;18.20;6.78;;;;;;;16.62;47.56;101966.25;4981056;28;20049;-68
2023/04/16 06:15:12;;;;;;;15.85;5.72;;;;;;;16.65;46.57;101970.50;5017790;28;20192;-68
2023/04/16 06:17:37;;;;;;;10.93;5.03;;;;;;;16.68;46.55;101976.50;5034241;28;20431;-68
2023/04/16 06:20:03;;;;;;;11.15;5.60;;;;;;;16.70;46.09;101982.63;4998537;28;20084;-68
2023/04/16 06:22:29;;;;;;;13.50;5.68;;;;;;;16.68;47.27;101981.91;5012134;28;20402;-68
2023/04/16 06:24:54;;;;;;;13.95;5.53;;;;;;;16.72;46.35;101977.91;5027535;28;20036;-68
2023/04/16 06:27:20;;;;;;;15.68;6.82;;;;;;;16.72;46.32;101985.22;5011908;28;20038;-68
2023/04/16 06:29:45;;;;;;;13.27;6.13;;;;;;;16.70;47.00;101988.03;4979742;28;20029;-68
2023/04/16 06:32:11;;;;;;;10.65;5.03;;;;;;;16.71;46.54;101989.75;5028369;28;20064;-68
2023/04/16 06:34:37;;;;;;;12.85;5.95;;;;;;;16.73;46.71;101990.47;4979347;28;20117;-68
2023/04/16 06:37:03;;;;;;;15.40;6.63;;;;;;;16.76;47.53;101992.88;5013010;28;20038;-68
2023/04/16 06:39:28;;;;;;;8.90;5.45;;;;;;;16.77;46.33;101997.31;5011904;28;20037;-68
2023/04/16 06:41:54;;;;;;;11.50;5.32;;;;;;;16.78;46.18;101996.31;5010970;28;20037;-68
2023/04/16 06:44:20;;;;;;;9.50;4.50;;;;;;;16.79;46.72;102008.84;4996389;28;20105;-68
2023/04/16 06:46:45;;;;;;;10.00;5.00;;;;;;;16.73;46.33;101993.16;5013189;28;20192;-68
2023/04/16 06:49:11;;;;;;;10.85;5.05;;;;;;;16.81;47.03;102004.13;5028519;28;20041;-68
2023/04/16 06:51:36;;;;;;;18.80;5.20;;;;;;;16.79;46.06;102000.72;5013183;28;20529;-68
2023/04/16 06:54:01;;;;;;;12.65;5.10;;;;;;;16.78;46.83;101999.00;5011837;28;20049;-68
2023/04/16 06:56:27;;;;;;;10.77;5.32;;;;;;;16.82;46.71;101999.59;4997455;28;20501;-67
2023/04/16 06:58:52;;;;;;;11.32;5.57;;;;;;;16.78;46.48;102004.41;5012051;28;20046;-68
2023/04/16 07:01:18;;;;;;;11.43;5.00;;;;;;;16.83;47.54;102006.72;5012962;28;20053;-68
2023/04/16 07:03:43;;;;;;;19.75;6.20;;;;;;;16.85;47.13;102007.44;5017089;28;20038;-68
2023/04/16 07:06:09;;;;;;;12.55;5.20;;;;;;;16.85;47.12;102008.28;5020374;28;20087;-68
2023/04/16 07:08:34;;;;;;;12.25;5.28;;;;;;;16.85;47.27;102011.00;5021359;28;20029;-68
2023/04/16 07:11:00;;;;;;;8.30;4.80;;;;;;;16.91;47.34;102012.28;4986552;28;20026;-68
2023/04/16 07:13:26;;;;;;;12.70;5.28;;;;;;;16.88;47.49;102005.31;5020918;28;20433;-68
2023/04/16 07:15:52;;;;;;;9.73;5.70;;;;;;;16.91;46.16;102011.44;5003860;28;20030;-68
2023/04/16 07:18:17;;;;;;;10.38;4.88;;;;;;;16.92;46.75;102015.84;5002573;28;20447;-68
2023/04/16 07:20:42;;;;;;;12.30;4.55;;;;;;;16.95;47.46;102027.22;5003559;28;20064;-68
2023/04/16 07:23:08;;;;;;;13.63;4.32;;;;;;;16.98;47.24;102021.53;5020708;28;20029;-67
2023/04/16 07:25:33;;;;;;;17.48;5.25;;;;;;;16.96;47.66;102023.53;5004145;28;20084;-68
2023/04/16 07:27:59;;;;;;;12.27;4.35;;;;;;;16.96;47.97;102033.50;5025977;28;20087;-68
2023/04/16 07:30:31;;;;;;;11.48;5.22;;;;;;;16.94;47.53;102030.09;5019204;28;20033;-68
2023/04/16 07:32:56;;;;;;;11.07;4.63;;;;;;;16.96;47.41;102034.38;5021397;28;20018;-68
2023/04/16 07:35:22;;;;;;;11.43;4.72;;;;;;;16.96;46.81;102033.50;5022976;28;20030;-68
2023/04/16 07:37:47;;;;;;;11.52;4.82;;;;;;;16.97;47.82;102035.22;5035965;28;20545;-68
2023/04/16 07:40:13;;;;;;;9.18;4.57;;;;;;;16.99;47.48;102044.06;5028114;28;20037;-68
2023/04/16 07:42:38;;;;;;;11.88;4.50;;;;;;;17.00;47.01;102046.59;5024359;28;20493;-68
2023/04/16 07:45:04;;;;;;;9.90;4.63;;;;;;;17.02;46.96;102041.06;4993099;28;20036;-68
2023/04/16 07:47:31;;;;;;;11.07;3.58;;;;;;;17.02;47.05;102044.63;5046979;28;20489;-68
2023/04/16 07:49:56;;;;;;;12.85;5.05;;;;;;;17.02;47.65;102044.63;5054658;28;20060;-66
2023/04/16 07:52:21;;;;;;;8.38;4.10;;;;;;;17.06;47.70;102050.59;5054552;28;20510;-67
2023/04/16 07:54:47;;;;;;;12.82;4.00;;;;;;;17.10;46.36;102052.03;5054237;28;20041;-68
2023/04/16 07:57:12;;;;;;;10.13;4.40;;;;;;;17.13;47.73;102052.63;5037557;28;20112;-68
2023/04/16 07:59:37;;;;;;;16.00;4.75;;;;;;;17.16;47.74;102057.75;5054460;28;20052;-69
2023/04/16 08:02:03;;;;;;;8.63;4.97;;;;;;;17.16;47.53;102056.91;5037497;28;20501;-69
2023/04/16 08:04:28;;;;;;;9.80;4.78;;;;;;;17.20;47.13;102061.00;5037468;28;20029;-70
2023/04/16 08:06:54;;;;;;;10.02;5.00;;;;;;;17.21;47.56;102054.63;5055271;28;20525;-68
2023/04/16 08:09:22;;;;;;;9.55;4.10;;;;;;;17.23;47.25;102063.44;5021137;28;20044;-69
2023/04/16 08:11:48;;;;;;;9.88;3.72;;;;;;;17.22;47.70;102065.31;5038044;28;20111;-68
2023/04/16 08:14:17;;;;;;;10.98;3.90;;;;;;;17.21;46.43;102070.88;5054468;28;20037;-71
2023/04/16 08:16:42;;;;;;;11.85;4.25;;;;;;;17.18;47.24;102065.72;5037479;28;20087;-69
2023/04/16 08:19:08;;;;;;;13.75;4.20;;;;;;;17.24;48.09;102070.59;5055203;28;20041;-70
2023/04/16 08:21:34;;;;;;;9.00;4.20;;;;;;;17.24;47.66;102076.00;5037578;28;20115;-70
2023/04/16 08:23:59;;;;;;;12.43;4.88;;;;;;;17.28;47.03;102082.84;5054954;28;20504;-69
2023/04/16 08:26:25;;;;;;;11.68;4.45;;;;;;;17.26;47.75;102082.13;5054239;28;20032;-70
2023/04/16 08:28:50;;;;;;;9.43;4.18;;;;;;;17.25;46.96;102088.56;5037002;28;20079;-70
2023/04/16 08:31:15;;;;;;;11.63;4.45;;;;;;;17.26;47.32;102087.53;5037045;28;20036;-69
2023/04/16 08:33:41;;;;;;;11.73;4.93;;;;;;;17.29;47.99;102089.97;5023063;28;20566;-69
2023/04/16 08:36:06;;;;;;;8.75;4.22;;;;;;;17.31;47.71;102094.25;5037621;28;20033;-70
2023/04/16 08:38:32;;;;;;;9.18;4.60;;;;;;;17.31;47.21;102088.81;5037978;28;20041;-70
2023/04/16 08:41:04;;;;;;;14.57;4.22;;;;;;;17.32;47.37;102090.53;5053541;28;20501;-70
2023/04/16 08:43:32;;;;;;;9.43;4.35;;;;;;;17.36;47.66;102091.94;5036956;28;20063;-70
2023/04/16 08:45:58;;;;;;;11.63;4.30;;;;;;;17.39;47.74;102096.25;5053454;28;20037;-70
2023/04/16 08:48:23;;;;;;;10.10;4.18;;;;;;;17.39;48.24;102093.56;5019332;28;20078;-70
2023/04/16 08:50:51;;;;;;;10.52;3.70;;;;;;;17.42;47.67;102095.94;5053664;28;20032;-70
2023/04/16 08:53:18;;;;;;;11.13;4.43;;;;;;;17.44;47.97;102099.41;5036656;28;20372;-70
2023/04/16 08:55:47;;;;;;;8.50;4.07;;;;;;;17.45;47.77;102106.50;5053398;28;20496;-70
2023/04/16 08:58:21;;;;;;;5.68;3.60;;;;;;;17.47;48.17;102105.34;5053095;28;20065;-70
2023/04/16 09:00:50;;;;;;;11.32;3.85;;;;;;;17.53;47.83;102111.22;5036460;28;20033;-70
2023/04/16 09:03:18;;;;;;;7.28;3.38;;;;;;;17.56;47.38;102108.28;5020174;28;20407;-70
2023/04/16 09:05:44;;;;;;;7.38;3.05;;;;;;;17.55;48.34;102112.81;5053459;28;20032;-70
2023/04/16 09:08:09;;;;;;;11.13;4.00;;;;;;;17.59;47.54;102114.22;5036323;28;20408;-70
2023/04/16 09:10:35;;;;;;;7.10;3.35;;;;;;;17.61;47.28;102106.84;5019907;28;20037;-70
2023/04/16 09:13:00;;;;;;;8.30;3.67;;;;;;;17.66;47.98;102112.69;5054183;28;20028;-70
2023/04/16 09:15:26;;;;;;;8.35;3.50;;;;;;;17.68;47.93;102110.66;5036225;28;20052;-70
2023/04/16 09:17:51;;;;;;;8.23;3.60;;;;;;;17.70;46.69;102119.50;5053330;28;20032;-70
2023/04/16 09:20:17;;;;;;;6.78;3.38;;;;;;;17.72;48.01;102117.53;5052858;28;20072;-69
2023/04/16 09:22:43;;;;;;;7.95;3.58;;;;;;;17.74;47.67;102111.94;5036249;28;20056;-69
2023/04/16 09:25:09;;;;;;;5.35;2.95;;;;;;;17.72;48.49;102114.81;5052368;28;20116;-69
2023/04/16 09:27:35;;;;;;;6.22;3.30;;;;;;;17.75;48.01;102125.38;5035773;28;20029;-70
2023/04/16 09:30:17;;;;;;;9.70;3.30;;;;;;;17.78;47.65;102122.34;5036021;28;20120;-69
2023/04/16 09:32:42;;;;;;;7.80;3.28;;;;;;;17.79;47.76;102121.34;5053325;28;20048;-70
2023/04/16 09:35:07;;;;;;;10.05;4.00;;;;;;;17.81;47.40;102116.63;5019667;28;20091;-70
2023/04/16 09:37:33;;;;;;;7.93;3.50;;;;;;;17.83;48.08;102122.81;5035842;28;20059;-70
2023/04/16 09:40:03;;;;;;;6.03;3.42;;;;;;;17.84;47.20;102121.78;5052688;28;20033;-69
2023/04/16 09:42:33;;;;;;;8.93;3.33;;;;;;;17.85;47.47;102131.63;5035871;28;20036;-71
2023/04/16 09:44:59;;;;;;;8.98;3.47;;;;;;;17.92;47.70;102138.16;5052115;28;20037;-68
2023/04/16 09:47:25;;;;;;;7.35;3.05;;;;;;;17.96;47.16;102133.31;5019886;28;20032;-70
2023/04/16 09:49:51;;;;;;;8.13;3.45;;;;;;;18.01;47.52;102137.31;5035889;28;20030;-69
2023/04/16 09:52:18;;;;;;;9.50;3.25;;;;;;;18.07;47.77;102129.59;5052539;28;20033;-69
2023/04/16 09:54:45;;;;;;;14.25;4.50;;;;;;;18.08;47.56;102134.03;5053786;28;20033;-69
2023/04/16 09:57:11;;;;;;;6.43;3.22;;;;;;;18.13;47.78;102138.00;5036055;28;20023;-69
2023/04/16 09:59:36;;;;;;;9.93;4.05;;;;;;;18.13;47.71;102137.16;5052370;28;20041;-68
2023/04/16 10:02:02;;;;;;;5.43;3.47;;;;;;;18.15;47.74;102132.41;5052115;28;20044;-68
2023/04/16 10:04:27;;;;;;;5.35;3.17;;;;;;;18.17;47.49;102141.28;5053637;28;20099;-68
2023/04/16 10:07:03;;;;;;;6.72;3.45;;;;;;;18.16;47.66;102134.16;5035197;28;20589;-68
2023/04/16 10:09:36;;;;;;;9.30;4.28;;;;;;;18.13;46.98;102134.44;5052780;28;20093;-68
2023/04/16 10:12:02;;;;;;;;;;;;;;;18.12;47.05;102138.16;5036915;28;20503;-68
2023/04/16 10:14:27;;;;;;;7.30;3.45;;;;;;;18.09;47.19;102138.47;5052883;28;19908;-69
2023/04/16 10:16:54;;;;;;;6.72;3.70;;;;;;;18.10;47.00;102142.84;5052396;28;20029;-68
2023/04/16 10:19:20;;;;;;;13.27;5.28;;;;;;;18.11;47.93;102142.72;5052254;28;20032;-69
2023/04/16 10:21:47;;;;;;;10.07;4.60;;;;;;;18.13;48.06;102146.13;5035470;28;20120;-68
2023/04/16 10:24:15;;;;;;;7.20;4.30;;;;;;;18.13;47.85;102148.00;5051759;28;20112;-69
2023/04/16 10:26:41;;;;;;;11.60;4.80;;;;;;;18.12;47.08;102143.59;5068321;28;20048;-68
2023/04/16 10:29:07;;;;;;;12.43;5.13;;;;;;;18.08;47.88;102147.59;5018510;28;20055;-68
2023/04/16 10:31:33;;;;;;;12.55;4.35;;;;;;;18.06;47.18;102155.00;5051707;28;20029;-68
2023/04/16 10:33:59;;;;;;;12.57;4.82;;;;;;;17.97;48.12;102146.75;5034667;28;20035;-69
2023/04/16 10:36:28;;;;;;;7.97;4.93;;;;;;;18.03;47.88;102162.41;5034766;28;20443;-68
2023/04/16 10:38:57;;;;;;;12.52;5.03;;;;;;;18.01;47.23;102153.59;5051557;28;20507;-68
2023/04/16 10:41:25;;;;;;;12.00;4.95;;;;;;;18.04;48.27;102152.44;5053112;28;20120;-69
2023/04/16 10:43:51;;;;;;;15.95;6.53;;;;;;;18.08;47.45;102156.56;5054746;28;20090;-71
2023/04/16 10:46:26;;;;;;;14.07;6.22;;;;;;;18.11;47.74;102158.13;5054698;28;20037;-69
2023/04/16 10:48:53;;;;;;;12.68;5.88;;;;;;;18.16;48.04;102153.13;5052568;28;20029;-68
2023/04/16 10:51:32;;;;;;;14.48;5.25;;;;;;;18.17;47.92;102150.28;5052570;28;20123;-68
2023/04/16 10:54:07;;;;;;;12.45;5.80;;;;;;;18.23;48.16;102154.28;5051482;28;20033;-68
2023/04/16 10:56:35;;;;;;;12.43;6.25;;;;;;;18.31;47.62;102148.97;5051719;28;20032;-68
2023/04/16 10:59:05;;;;;;;15.20;5.68;;;;;;;18.43;48.27;102153.19;5018369;28;20052;-68
2023/04/16 11:01:32;;;;;;;11.10;6.68;;;;;;;18.55;46.78;102149.34;5051211;28;20103;-68
2023/04/16 11:04:00;;;;;;;12.05;6.00;;;;;;;18.71;47.33;102144.13;5051256;28;20041;-69
2023/04/16 11:06:27;;;;;;;9.60;6.35;;;;;;;18.96;47.68;102146.13;5051351;28;20041;-68
2023/04/16 11:08:52;;;;;;;14.00;5.90;;;;;;;19.15;46.86;102140.59;5051247;28;20036;-68
2023/04/16 11:11:18;;;;;;;12.18;6.82;;;;;;;19.45;46.88;102141.28;5053633;28;20025;-68
2023/04/16 11:13:44;;;;;;;17.40;7.13;;;;;;;19.74;46.23;102136.44;5022115;28;20029;-69
2023/04/16 11:16:14;;;;;;;15.52;6.30;;;;;;;19.88;46.43;102141.34;5038617;28;20029;-69